sensor_id;sensor_type;location;lat;lon;timestamp;pressure;altitude;pressure_sealevel;temperature;humidity
6389;BME280;3227;42.654;23.360;2022-11-20T00:01:24;93731.34;;;14.68;97.37
6389;BME280;3227;42.654;23.360;2022-11-20T00:03:52;93765.91;;;14.92;97.89
6389;BME280;3227;42.654;23.360;2022-11-20T00:06:20;93782.06;;;14.98;97.67
6389;BME280;3227;42.654;23.360;2022-11-20T00:08:49;93775.88;;;15.04;97.89
6389;BME280;3227;42.654;23.360;2022-11-20T00:11:17;93749.03;;;15.09;97.09
6389;BME280;3227;42.654;23.360;2022-11-20T00:13:45;93744.69;;;15.11;96.33
6389;BME280;3227;42.654;23.360;2022-11-20T00:16:19;93731.09;;;15.06;96.98
6389;BME280;3227;42.654;23.360;2022-11-20T00:18:47;93759.47;;;15.06;96.36
6389;BME280;3227;42.654;23.360;2022-11-20T00:21:16;93733.31;;;14.89;96.66
6389;BME280;3227;42.654;23.360;2022-11-20T00:23:43;93732.66;;;15.10;95.75
6389;BME280;3227;42.654;23.360;2022-11-20T00:26:12;93746.72;;;15.00;95.41
6389;BME280;3227;42.654;23.360;2022-11-20T00:28:40;93752.06;;;14.94;96.09
6389;BME280;3227;42.654;23.360;2022-11-20T00:31:12;93701.97;;;15.01;92.96
6389;BME280;3227;42.654;23.360;2022-11-20T00:33:39;93721.84;;;15.27;84.95
6389;BME280;3227;42.654;23.360;2022-11-20T00:36:08;93726.63;;;15.39;89.36
6389;BME280;3227;42.654;23.360;2022-11-20T00:38:41;93726.38;;;15.47;89.06
6389;BME280;3227;42.654;23.360;2022-11-20T00:41:15;93749.50;;;15.50;89.24
6389;BME280;3227;42.654;23.360;2022-11-20T00:43:42;93730.50;;;15.54;87.80
6389;BME280;3227;42.654;23.360;2022-11-20T00:46:10;93739.63;;;15.64;88.12
6389;BME280;3227;42.654;23.360;2022-11-20T00:48:38;93743.75;;;15.70;86.26
6389;BME280;3227;42.654;23.360;2022-11-20T00:51:05;93739.69;;;15.89;85.01
6389;BME280;3227;42.654;23.360;2022-11-20T00:53:32;93673.38;;;15.63;83.82
6389;BME280;3227;42.654;23.360;2022-11-20T00:56:01;93716.66;;;15.81;82.65
6389;BME280;3227;42.654;23.360;2022-11-20T00:58:31;93755.41;;;16.08;82.97
6389;BME280;3227;42.654;23.360;2022-11-20T01:01:03;93731.97;;;16.14;82.32
6389;BME280;3227;42.654;23.360;2022-11-20T01:03:31;93745.47;;;16.22;80.48
6389;BME280;3227;42.654;23.360;2022-11-20T01:06:02;93762.31;;;16.57;76.07
6389;BME280;3227;42.654;23.360;2022-11-20T01:08:32;93718.25;;;16.85;74.25
6389;BME280;3227;42.654;23.360;2022-11-20T01:11:00;93730.94;;;16.91;74.76
6389;BME280;3227;42.654;23.360;2022-11-20T01:13:30;93735.22;;;16.92;74.41
6389;BME280;3227;42.654;23.360;2022-11-20T01:16:08;93723.97;;;16.93;74.76
6389;BME280;3227;42.654;23.360;2022-11-20T01:18:36;93723.88;;;16.96;73.50
6389;BME280;3227;42.654;23.360;2022-11-20T01:21:06;93719.25;;;17.04;73.10
6389;BME280;3227;42.654;23.360;2022-11-20T01:23:34;93720.81;;;17.08;73.76
6389;BME280;3227;42.654;23.360;2022-11-20T01:26:02;93702.63;;;17.09;72.21
6389;BME280;3227;42.654;23.360;2022-11-20T01:28:31;93657.00;;;17.07;69.69
6389;BME280;3227;42.654;23.360;2022-11-20T01:30:58;93725.19;;;17.29;71.12
6389;BME280;3227;42.654;23.360;2022-11-20T01:33:25;93711.44;;;17.27;71.61
6389;BME280;3227;42.654;23.360;2022-11-20T01:35:52;93709.84;;;17.23;72.80
6389;BME280;3227;42.654;23.360;2022-11-20T01:38:19;93681.31;;;17.25;72.12
6389;BME280;3227;42.654;23.360;2022-11-20T01:40:53;93685.22;;;17.13;73.38
6389;BME280;3227;42.654;23.360;2022-11-20T01:43:21;93690.03;;;17.00;74.07
6389;BME280;3227;42.654;23.360;2022-11-20T01:46:16;93694.94;;;16.85;74.72
6389;BME280;3227;42.654;23.360;2022-11-20T01:48:48;93690.72;;;16.82;73.42
6389;BME280;3227;42.654;23.360;2022-11-20T01:51:28;93663.72;;;16.89;74.18
6389;BME280;3227;42.654;23.360;2022-11-20T01:53:58;93686.41;;;16.83;74.34
6389;BME280;3227;42.654;23.360;2022-11-20T01:56:28;93670.16;;;16.79;75.01
6389;BME280;3227;42.654;23.360;2022-11-20T01:58:58;93686.06;;;16.68;76.02
6389;BME280;3227;42.654;23.360;2022-11-20T02:01:28;93683.97;;;16.55;77.18
6389;BME280;3227;42.654;23.360;2022-11-20T02:03:56;93698.69;;;16.53;76.38
6389;BME280;3227;42.654;23.360;2022-11-20T02:06:25;93688.06;;;16.60;75.69
6389;BME280;3227;42.654;23.360;2022-11-20T02:08:53;93688.06;;;16.60;75.91
6389;BME280;3227;42.654;23.360;2022-11-20T02:11:21;93699.91;;;16.67;75.37
6389;BME280;3227;42.654;23.360;2022-11-20T02:13:48;93716.94;;;16.73;76.50
6389;BME280;3227;42.654;23.360;2022-11-20T02:16:18;93696.19;;;16.74;75.87
6389;BME280;3227;42.654;23.360;2022-11-20T02:18:47;93724.31;;;16.84;74.65
6389;BME280;3227;42.654;23.360;2022-11-20T02:21:26;93709.59;;;16.86;74.46
6389;BME280;3227;42.654;23.360;2022-11-20T02:24:11;93702.97;;;17.00;69.82
6389;BME280;3227;42.654;23.360;2022-11-20T02:26:43;93691.31;;;17.34;67.56
6389;BME280;3227;42.654;23.360;2022-11-20T02:29:10;93689.28;;;17.42;67.42
6389;BME280;3227;42.654;23.360;2022-11-20T02:31:40;93693.06;;;17.55;66.29
6389;BME280;3227;42.654;23.360;2022-11-20T02:34:07;93689.44;;;17.59;65.89
6389;BME280;3227;42.654;23.360;2022-11-20T02:36:35;93694.34;;;17.67;65.86
6389;BME280;3227;42.654;23.360;2022-11-20T02:39:03;93713.28;;;17.69;66.20
6389;BME280;3227;42.654;23.360;2022-11-20T02:41:33;93705.19;;;17.76;64.89
6389;BME280;3227;42.654;23.360;2022-11-20T02:44:00;93700.47;;;17.86;64.73
6389;BME280;3227;42.654;23.360;2022-11-20T02:46:27;93700.81;;;17.99;64.48
6389;BME280;3227;42.654;23.360;2022-11-20T02:48:54;93730.09;;;18.01;64.88
6389;BME280;3227;42.654;23.360;2022-11-20T02:51:21;93717.78;;;18.06;63.75
6389;BME280;3227;42.654;23.360;2022-11-20T02:53:48;93720.31;;;18.07;64.36
6389;BME280;3227;42.654;23.360;2022-11-20T02:56:15;93720.19;;;18.10;64.65
6389;BME280;3227;42.654;23.360;2022-11-20T02:58:48;93726.22;;;18.11;64.88
6389;BME280;3227;42.654;23.360;2022-11-20T03:01:15;93715.84;;;18.11;65.05
6389;BME280;3227;42.654;23.360;2022-11-20T03:03:42;93724.38;;;18.13;65.53
6389;BME280;3227;42.654;23.360;2022-11-20T03:06:09;93730.41;;;18.13;65.93
6389;BME280;3227;42.654;23.360;2022-11-20T03:08:35;93744.06;;;18.18;65.36
6389;BME280;3227;42.654;23.360;2022-11-20T03:11:04;93724.72;;;18.25;64.68
6389;BME280;3227;42.654;23.360;2022-11-20T03:13:31;93714.53;;;18.21;64.66
6389;BME280;3227;42.654;23.360;2022-11-20T03:16:05;93723.44;;;18.15;64.31
6389;BME280;3227;42.654;23.360;2022-11-20T03:18:32;93712.66;;;18.24;63.83
6389;BME280;3227;42.654;23.360;2022-11-20T03:20:59;93740.03;;;18.32;64.12
6389;BME280;3227;42.654;23.360;2022-11-20T03:23:29;93752.28;;;18.28;64.41
6389;BME280;3227;42.654;23.360;2022-11-20T03:25:56;93747.91;;;18.29;64.72
6389;BME280;3227;42.654;23.360;2022-11-20T03:28:22;93738.47;;;18.28;64.35
6389;BME280;3227;42.654;23.360;2022-11-20T03:30:49;93724.47;;;18.11;64.77
6389;BME280;3227;42.654;23.360;2022-11-20T03:33:17;93755.06;;;18.23;65.22
6389;BME280;3227;42.654;23.360;2022-11-20T03:35:44;93739.56;;;18.22;65.30
6389;BME280;3227;42.654;23.360;2022-11-20T03:38:11;93725.59;;;18.04;65.47
6389;BME280;3227;42.654;23.360;2022-11-20T03:40:37;93757.84;;;18.19;65.97
6389;BME280;3227;42.654;23.360;2022-11-20T03:43:04;93737.69;;;18.25;64.06
6389;BME280;3227;42.654;23.360;2022-11-20T03:45:31;93756.47;;;18.31;64.27
6389;BME280;3227;42.654;23.360;2022-11-20T03:47:58;93757.38;;;18.30;64.04
6389;BME280;3227;42.654;23.360;2022-11-20T03:50:26;93761.72;;;18.29;64.61
6389;BME280;3227;42.654;23.360;2022-11-20T03:52:52;93761.81;;;18.28;64.96
6389;BME280;3227;42.654;23.360;2022-11-20T03:55:19;93757.53;;;18.27;65.18
6389;BME280;3227;42.654;23.360;2022-11-20T03:57:46;93762.78;;;18.25;65.01
6389;BME280;3227;42.654;23.360;2022-11-20T04:00:14;93760.38;;;18.20;64.68
6389;BME280;3227;42.654;23.360;2022-11-20T04:02:41;93758.44;;;18.25;64.23
6389;BME280;3227;42.654;23.360;2022-11-20T04:05:08;93741.25;;;18.23;64.54
6389;BME280;3227;42.654;23.360;2022-11-20T04:07:36;93751.81;;;18.18;64.40
6389;BME280;3227;42.654;23.360;2022-11-20T04:10:03;93741.94;;;18.06;64.24
6389;BME280;3227;42.654;23.360;2022-11-20T04:12:32;93751.78;;;18.20;64.08
6389;BME280;3227;42.654;23.360;2022-11-20T04:14:59;93761.28;;;18.19;64.30
6389;BME280;3227;42.654;23.360;2022-11-20T04:17:25;93748.97;;;18.24;63.18
6389;BME280;3227;42.654;23.360;2022-11-20T04:19:52;93770.50;;;18.27;63.68
6389;BME280;3227;42.654;23.360;2022-11-20T04:22:19;93771.47;;;18.24;63.66
6389;BME280;3227;42.654;23.360;2022-11-20T04:24:47;93756.13;;;18.19;63.85
6389;BME280;3227;42.654;23.360;2022-11-20T04:27:14;93759.47;;;18.21;64.51
6389;BME280;3227;42.654;23.360;2022-11-20T04:29:41;93779.44;;;18.19;64.06
6389;BME280;3227;42.654;23.360;2022-11-20T04:32:07;93770.81;;;18.19;63.84
6389;BME280;3227;42.654;23.360;2022-11-20T04:34:34;93765.50;;;18.22;64.47
6389;BME280;3227;42.654;23.360;2022-11-20T04:37:01;93772.56;;;18.18;64.55
6389;BME280;3227;42.654;23.360;2022-11-20T04:39:28;93773.59;;;18.14;65.35
6389;BME280;3227;42.654;23.360;2022-11-20T04:41:56;93762.63;;;18.08;65.30
6389;BME280;3227;42.654;23.360;2022-11-20T04:44:37;93771.63;;;17.99;66.39
6389;BME280;3227;42.654;23.360;2022-11-20T04:47:03;93786.69;;;18.11;65.99
6389;BME280;3227;42.654;23.360;2022-11-20T04:49:30;93774.53;;;18.12;66.72
6389;BME280;3227;42.654;23.360;2022-11-20T04:51:57;93724.94;;;17.79;66.00
6389;BME280;3227;42.654;23.360;2022-11-20T04:54:24;93761.78;;;18.07;66.71
6389;BME280;3227;42.654;23.360;2022-11-20T04:56:51;93773.91;;;18.07;67.16
6389;BME280;3227;42.654;23.360;2022-11-20T04:59:19;93743.16;;;17.98;66.84
6389;BME280;3227;42.654;23.360;2022-11-20T05:01:46;93767.72;;;18.11;66.60
6389;BME280;3227;42.654;23.360;2022-11-20T05:04:13;93761.66;;;18.10;66.60
6389;BME280;3227;42.654;23.360;2022-11-20T05:06:40;93752.25;;;18.08;66.76
6389;BME280;3227;42.654;23.360;2022-11-20T05:09:07;93738.00;;;17.98;66.83
6389;BME280;3227;42.654;23.360;2022-11-20T05:11:33;93767.88;;;18.06;67.70
6389;BME280;3227;42.654;23.360;2022-11-20T05:14:00;93753.47;;;17.99;67.39
6389;BME280;3227;42.654;23.360;2022-11-20T05:16:28;93755.28;;;17.97;68.24
6389;BME280;3227;42.654;23.360;2022-11-20T05:18:55;93751.00;;;17.96;68.48
6389;BME280;3227;42.654;23.360;2022-11-20T05:21:22;93751.16;;;17.93;69.26
6389;BME280;3227;42.654;23.360;2022-11-20T05:23:49;93752.31;;;17.86;70.10
6389;BME280;3227;42.654;23.360;2022-11-20T05:26:18;93735.28;;;17.79;71.11
6389;BME280;3227;42.654;23.360;2022-11-20T05:28:46;93696.31;;;17.60;71.48
6389;BME280;3227;42.654;23.360;2022-11-20T05:31:15;93720.00;;;17.73;71.52
6389;BME280;3227;42.654;23.360;2022-11-20T05:33:44;93717.66;;;17.67;71.90
6389;BME280;3227;42.654;23.360;2022-11-20T05:36:12;93724.81;;;17.60;74.77
6389;BME280;3227;42.654;23.360;2022-11-20T05:38:40;93725.88;;;17.55;75.99
6389;BME280;3227;42.654;23.360;2022-11-20T05:41:08;93736.38;;;17.52;76.00
6389;BME280;3227;42.654;23.360;2022-11-20T05:43:36;93734.78;;;17.47;76.46
6389;BME280;3227;42.654;23.360;2022-11-20T05:46:04;93735.78;;;17.45;77.17
6389;BME280;3227;42.654;23.360;2022-11-20T05:48:31;93705.16;;;17.33;77.66
6389;BME280;3227;42.654;23.360;2022-11-20T05:51:01;93681.09;;;17.09;78.32
6389;BME280;3227;42.654;23.360;2022-11-20T05:53:28;93691.78;;;17.22;79.04
6389;BME280;3227;42.654;23.360;2022-11-20T05:55:59;93718.31;;;17.28;79.35
6389;BME280;3227;42.654;23.360;2022-11-20T05:58:26;93726.19;;;17.25;79.75
6389;BME280;3227;42.654;23.360;2022-11-20T06:00:53;93723.84;;;17.19;80.39
6389;BME280;3227;42.654;23.360;2022-11-20T06:03:20;93726.47;;;17.18;80.00
6389;BME280;3227;42.654;23.360;2022-11-20T06:05:47;93736.00;;;17.17;80.45
6389;BME280;3227;42.654;23.360;2022-11-20T06:08:15;93739.47;;;17.16;80.67
6389;BME280;3227;42.654;23.360;2022-11-20T06:10:42;93740.31;;;17.17;81.00
6389;BME280;3227;42.654;23.360;2022-11-20T06:13:09;93725.97;;;17.08;80.75
6389;BME280;3227;42.654;23.360;2022-11-20T06:15:35;93748.94;;;17.17;80.57
6389;BME280;3227;42.654;23.360;2022-11-20T06:18:07;93716.88;;;16.98;79.86
6389;BME280;3227;42.654;23.360;2022-11-20T06:20:34;93742.16;;;17.13;79.98
6389;BME280;3227;42.654;23.360;2022-11-20T06:23:01;93746.59;;;17.11;79.67
6389;BME280;3227;42.654;23.360;2022-11-20T06:25:29;93751.84;;;17.08;80.13
6389;BME280;3227;42.654;23.360;2022-11-20T06:27:56;93756.09;;;17.10;80.37
6389;BME280;3227;42.654;23.360;2022-11-20T06:30:22;93737.41;;;17.02;80.08
6389;BME280;3227;42.654;23.360;2022-11-20T06:32:49;93770.63;;;17.13;80.64
6389;BME280;3227;42.654;23.360;2022-11-20T06:35:16;93773.13;;;17.16;79.94
6389;BME280;3227;42.654;23.360;2022-11-20T06:37:43;93756.94;;;17.11;79.25
6389;BME280;3227;42.654;23.360;2022-11-20T06:40:10;93756.47;;;17.00;79.96
6389;BME280;3227;42.654;23.360;2022-11-20T06:42:39;93758.84;;;17.06;80.29
6389;BME280;3227;42.654;23.360;2022-11-20T06:45:07;93768.19;;;17.10;80.19
6389;BME280;3227;42.654;23.360;2022-11-20T06:47:39;93761.03;;;17.17;79.89
6389;BME280;3227;42.654;23.360;2022-11-20T06:50:06;93758.09;;;17.26;79.18
6389;BME280;3227;42.654;23.360;2022-11-20T06:52:33;93755.47;;;17.27;78.54
6389;BME280;3227;42.654;23.360;2022-11-20T06:54:59;93774.69;;;17.43;78.08
6389;BME280;3227;42.654;23.360;2022-11-20T06:57:26;93772.81;;;17.47;77.29
6389;BME280;3227;42.654;23.360;2022-11-20T06:59:54;93771.31;;;17.41;76.80
6389;BME280;3227;42.654;23.360;2022-11-20T07:02:21;93773.09;;;17.39;77.28
6389;BME280;3227;42.654;23.360;2022-11-20T07:04:48;93778.16;;;17.42;77.67
6389;BME280;3227;42.654;23.360;2022-11-20T07:07:15;93786.72;;;17.44;77.22
6389;BME280;3227;42.654;23.360;2022-11-20T07:09:41;93746.09;;;17.23;77.45
6389;BME280;3227;42.654;23.360;2022-11-20T07:12:08;93774.78;;;17.40;77.48
6389;BME280;3227;42.654;23.360;2022-11-20T07:14:35;93729.91;;;17.18;74.09
6389;BME280;3227;42.654;23.360;2022-11-20T07:17:03;93780.66;;;17.45;74.34
6389;BME280;3227;42.654;23.360;2022-11-20T07:19:30;93791.91;;;17.44;74.64
6389;BME280;3227;42.654;23.360;2022-11-20T07:21:57;93797.00;;;17.46;74.07
6389;BME280;3227;42.654;23.360;2022-11-20T07:24:23;93763.94;;;17.31;73.77
6389;BME280;3227;42.654;23.360;2022-11-20T07:26:50;93803.13;;;17.45;74.40
6389;BME280;3227;42.654;23.360;2022-11-20T07:29:17;93803.03;;;17.46;75.40
6389;BME280;3227;42.654;23.360;2022-11-20T07:31:44;93795.91;;;17.53;75.86
6389;BME280;3227;42.654;23.360;2022-11-20T07:34:12;93794.00;;;17.57;74.35
6389;BME280;3227;42.654;23.360;2022-11-20T07:36:39;93788.19;;;17.52;74.70
6389;BME280;3227;42.654;23.360;2022-11-20T07:39:06;93773.66;;;17.47;73.33
6389;BME280;3227;42.654;23.360;2022-11-20T07:41:33;93784.50;;;17.57;73.72
6389;BME280;3227;42.654;23.360;2022-11-20T07:44:00;93779.50;;;17.53;73.71
6389;BME280;3227;42.654;23.360;2022-11-20T07:46:27;93797.94;;;17.45;74.01
6389;BME280;3227;42.654;23.360;2022-11-20T07:48:54;93792.00;;;17.41;73.43
6389;BME280;3227;42.654;23.360;2022-11-20T07:51:22;93783.41;;;17.41;73.14
6389;BME280;3227;42.654;23.360;2022-11-20T07:53:50;93793.88;;;17.38;72.59
6389;BME280;3227;42.654;23.360;2022-11-20T07:56:17;93793.09;;;17.36;73.42
6389;BME280;3227;42.654;23.360;2022-11-20T07:58:44;93805.34;;;17.31;73.48
6389;BME280;3227;42.654;23.360;2022-11-20T08:01:11;93789.97;;;17.28;74.38
6389;BME280;3227;42.654;23.360;2022-11-20T08:03:37;93795.84;;;17.31;74.17
6389;BME280;3227;42.654;23.360;2022-11-20T08:06:05;93794.09;;;17.32;74.33
6389;BME280;3227;42.654;23.360;2022-11-20T08:08:33;93799.97;;;17.37;73.96
6389;BME280;3227;42.654;23.360;2022-11-20T08:11:00;93795.50;;;17.40;74.08
6389;BME280;3227;42.654;23.360;2022-11-20T08:13:41;93786.88;;;17.40;74.15
6389;BME280;3227;42.654;23.360;2022-11-20T08:16:24;93779.91;;;17.42;73.36
6389;BME280;3227;42.654;23.360;2022-11-20T08:18:51;93756.97;;;17.33;72.50
6389;BME280;3227;42.654;23.360;2022-11-20T08:21:18;93791.78;;;17.47;72.59
6389;BME280;3227;42.654;23.360;2022-11-20T08:23:46;93738.56;;;17.17;72.96
6389;BME280;3227;42.654;23.360;2022-11-20T08:26:13;93799.34;;;17.54;71.95
6389;BME280;3227;42.654;23.360;2022-11-20T08:29:00;93804.44;;;17.55;71.72
6389;BME280;3227;42.654;23.360;2022-11-20T08:31:27;93787.34;;;17.51;71.47
6389;BME280;3227;42.654;23.360;2022-11-20T08:33:54;93805.50;;;17.73;71.04
6389;BME280;3227;42.654;23.360;2022-11-20T08:36:22;93808.78;;;17.78;70.54
6389;BME280;3227;42.654;23.360;2022-11-20T08:38:52;93802.50;;;17.83;70.50
6389;BME280;3227;42.654;23.360;2022-11-20T08:41:19;93805.94;;;17.84;70.41
6389;BME280;3227;42.654;23.360;2022-11-20T08:43:55;93797.00;;;17.91;70.40
6389;BME280;3227;42.654;23.360;2022-11-20T08:46:23;93808.72;;;18.01;70.12
6389;BME280;3227;42.654;23.360;2022-11-20T08:48:50;93818.94;;;18.04;70.49
6389;BME280;3227;42.654;23.360;2022-11-20T08:51:17;93844.84;;;18.04;70.58
6389;BME280;3227;42.654;23.360;2022-11-20T08:53:45;93855.13;;;18.07;70.38
6389;BME280;3227;42.654;23.360;2022-11-20T08:56:15;93853.47;;;18.05;70.31
6389;BME280;3227;42.654;23.360;2022-11-20T08:58:43;93837.16;;;18.03;71.29
6389;BME280;3227;42.654;23.360;2022-11-20T09:01:10;93844.75;;;18.07;71.17
6389;BME280;3227;42.654;23.360;2022-11-20T09:03:37;93815.22;;;17.90;72.13
6389;BME280;3227;42.654;23.360;2022-11-20T09:06:05;93845.69;;;18.05;70.99
6389;BME280;3227;42.654;23.360;2022-11-20T09:08:32;93838.59;;;18.10;71.40
6389;BME280;3227;42.654;23.360;2022-11-20T09:10:59;93838.00;;;18.03;72.11
6389;BME280;3227;42.654;23.360;2022-11-20T09:13:29;93847.59;;;18.01;74.10
6389;BME280;3227;42.654;23.360;2022-11-20T09:15:56;93852.09;;;17.96;76.32
6389;BME280;3227;42.654;23.360;2022-11-20T09:18:27;93848.41;;;17.80;78.79
6389;BME280;3227;42.654;23.360;2022-11-20T09:20:56;93837.56;;;17.70;81.44
6389;BME280;3227;42.654;23.360;2022-11-20T09:23:23;93836.84;;;17.67;82.02
6389;BME280;3227;42.654;23.360;2022-11-20T09:25:50;93841.38;;;17.60;81.37
6389;BME280;3227;42.654;23.360;2022-11-20T09:28:18;93845.97;;;17.54;82.74
6389;BME280;3227;42.654;23.360;2022-11-20T09:30:46;93840.13;;;17.47;84.31
6389;BME280;3227;42.654;23.360;2022-11-20T09:33:13;93840.31;;;17.42;83.74
6389;BME280;3227;42.654;23.360;2022-11-20T09:35:40;93823.09;;;17.41;85.13
6389;BME280;3227;42.654;23.360;2022-11-20T09:38:07;93788.00;;;17.11;84.60
6389;BME280;3227;42.654;23.360;2022-11-20T09:40:38;93819.16;;;17.31;85.28
6389;BME280;3227;42.654;23.360;2022-11-20T09:43:10;93815.91;;;17.26;86.00
6389;BME280;3227;42.654;23.360;2022-11-20T09:45:53;93801.38;;;17.22;86.68
6389;BME280;3227;42.654;23.360;2022-11-20T09:48:39;93801.59;;;17.16;88.03
6389;BME280;3227;42.654;23.360;2022-11-20T09:51:15;93788.72;;;17.15;86.83
6389;BME280;3227;42.654;23.360;2022-11-20T09:53:55;93800.25;;;17.06;86.00
6389;BME280;3227;42.654;23.360;2022-11-20T09:56:33;93795.97;;;17.05;86.93
6389;BME280;3227;42.654;23.360;2022-11-20T09:59:04;93786.75;;;16.98;87.92
6389;BME280;3227;42.654;23.360;2022-11-20T10:01:36;93799.84;;;16.93;89.38
6389;BME280;3227;42.654;23.360;2022-11-20T10:04:10;93773.03;;;16.96;85.47
6389;BME280;3227;42.654;23.360;2022-11-20T10:06:43;93773.09;;;16.94;87.35
6389;BME280;3227;42.654;23.360;2022-11-20T10:09:20;93779.91;;;16.72;89.64
6389;BME280;3227;42.654;23.360;2022-11-20T10:11:59;93788.16;;;16.83;90.14
6389;BME280;3227;42.654;23.360;2022-11-20T10:14:37;93786.13;;;16.91;89.58
6389;BME280;3227;42.654;23.360;2022-11-20T10:17:16;93773.59;;;17.04;88.63
6389;BME280;3227;42.654;23.360;2022-11-20T10:19:58;93761.09;;;17.15;89.07
6389;BME280;3227;42.654;23.360;2022-11-20T10:22:42;93758.63;;;17.12;88.05
6389;BME280;3227;42.654;23.360;2022-11-20T10:25:14;93765.94;;;17.01;86.10
6389;BME280;3227;42.654;23.360;2022-11-20T10:28:00;93767.06;;;16.94;87.24
6389;BME280;3227;42.654;23.360;2022-11-20T10:30:35;93764.53;;;16.92;87.85
6389;BME280;3227;42.654;23.360;2022-11-20T10:33:10;93770.94;;;16.82;87.98
6389;BME280;3227;42.654;23.360;2022-11-20T10:35:43;93745.38;;;16.48;88.44
6389;BME280;3227;42.654;23.360;2022-11-20T10:38:16;93765.97;;;16.51;89.25
6389;BME280;3227;42.654;23.360;2022-11-20T10:40:49;93766.19;;;16.45;91.40
6389;BME280;3227;42.654;23.360;2022-11-20T10:43:21;93738.59;;;16.21;91.94
6389;BME280;3227;42.654;23.360;2022-11-20T10:45:55;93777.66;;;16.38;93.27
6389;BME280;3227;42.654;23.360;2022-11-20T10:48:25;93784.47;;;16.39;93.15
6389;BME280;3227;42.654;23.360;2022-11-20T10:51:15;93772.41;;;16.40;93.58
6389;BME280;3227;42.654;23.360;2022-11-20T10:53:55;93755.91;;;16.19;93.35
6389;BME280;3227;42.654;23.360;2022-11-20T10:56:30;93785.00;;;16.24;94.27
6389;BME280;3227;42.654;23.360;2022-11-20T10:59:24;93792.75;;;16.24;94.08
6389;BME280;3227;42.654;23.360;2022-11-20T11:01:53;93779.84;;;16.24;93.30
6389;BME280;3227;42.654;23.360;2022-11-20T11:04:33;93800.78;;;16.41;93.04
6389;BME280;3227;42.654;23.360;2022-11-20T11:07:08;93783.91;;;16.31;94.29
6389;BME280;3227;42.654;23.360;2022-11-20T11:09:40;93806.47;;;16.52;96.05
6389;BME280;3227;42.654;23.360;2022-11-20T11:12:08;93820.81;;;16.62;96.56
6389;BME280;3227;42.654;23.360;2022-11-20T11:14:43;93797.31;;;16.42;95.90
6389;BME280;3227;42.654;23.360;2022-11-20T11:17:22;93851.72;;;16.65;98.11
6389;BME280;3227;42.654;23.360;2022-11-20T11:20:18;93854.28;;;16.39;100.00
6389;BME280;3227;42.654;23.360;2022-11-20T11:22:48;93858.47;;;16.17;100.00
6389;BME280;3227;42.654;23.360;2022-11-20T11:25:28;93843.31;;;15.80;94.68
6389;BME280;3227;42.654;23.360;2022-11-20T11:27:56;93840.91;;;15.44;90.60
6389;BME280;3227;42.654;23.360;2022-11-20T11:30:25;93839.66;;;15.28;89.65
6389;BME280;3227;42.654;23.360;2022-11-20T11:33:03;93833.69;;;15.26;91.50
6389;BME280;3227;42.654;23.360;2022-11-20T11:35:32;93848.28;;;15.27;91.24
6389;BME280;3227;42.654;23.360;2022-11-20T11:38:04;93818.88;;;15.03;90.52
6389;BME280;3227;42.654;23.360;2022-11-20T11:40:34;93835.00;;;15.11;91.72
6389;BME280;3227;42.654;23.360;2022-11-20T11:43:05;93828.16;;;15.09;89.57
6389;BME280;3227;42.654;23.360;2022-11-20T11:45:54;93825.63;;;15.07;89.53
6389;BME280;3227;42.654;23.360;2022-11-20T11:48:20;93820.91;;;14.92;89.90
6389;BME280;3227;42.654;23.360;2022-11-20T11:50:50;93805.66;;;14.84;89.61
6389;BME280;3227;42.654;23.360;2022-11-20T11:53:18;93809.47;;;14.71;88.47
6389;BME280;3227;42.654;23.360;2022-11-20T11:55:50;93801.19;;;14.59;90.87
6389;BME280;3227;42.654;23.360;2022-11-20T11:58:33;93764.81;;;14.37;89.17
6389;BME280;3227;42.654;23.360;2022-11-20T12:01:03;93809.69;;;14.64;90.87
6389;BME280;3227;42.654;23.360;2022-11-20T12:03:35;93776.41;;;14.55;92.20
6389;BME280;3227;42.654;23.360;2022-11-20T12:06:07;93778.94;;;14.56;89.32
6389;BME280;3227;42.654;23.360;2022-11-20T12:08:42;93760.31;;;14.46;90.03
6389;BME280;3227;42.654;23.360;2022-11-20T12:11:13;93787.56;;;14.55;90.61
6389;BME280;3227;42.654;23.360;2022-11-20T12:13:50;93754.97;;;14.53;89.05
6389;BME280;3227;42.654;23.360;2022-11-20T12:16:19;93782.75;;;14.41;89.22
6389;BME280;3227;42.654;23.360;2022-11-20T12:19:02;93773.66;;;14.28;90.81
6389;BME280;3227;42.654;23.360;2022-11-20T12:21:42;93741.25;;;13.86;93.37
6389;BME280;3227;42.654;23.360;2022-11-20T12:24:43;93800.00;;;14.05;94.97
6389;BME280;3227;42.654;23.360;2022-11-20T12:27:37;93796.53;;;14.08;93.30
6389;BME280;3227;42.654;23.360;2022-11-20T12:30:09;93786.72;;;13.87;90.94
6389;BME280;3227;42.654;23.360;2022-11-20T12:32:56;93746.38;;;13.52;93.49
6389;BME280;3227;42.654;23.360;2022-11-20T12:35:35;93818.28;;;13.95;92.72
6389;BME280;3227;42.654;23.360;2022-11-20T12:38:24;93780.31;;;14.03;92.09
6389;BME280;3227;42.654;23.360;2022-11-20T12:41:01;93756.19;;;14.07;91.72
6389;BME280;3227;42.654;23.360;2022-11-20T12:43:37;93732.19;;;14.05;91.35
6389;BME280;3227;42.654;23.360;2022-11-20T12:46:29;93709.63;;;14.15;90.40
6389;BME280;3227;42.654;23.360;2022-11-20T12:49:20;93721.88;;;14.37;91.85
6389;BME280;3227;42.654;23.360;2022-11-20T12:52:11;93723.13;;;14.55;93.47
6389;BME280;3227;42.654;23.360;2022-11-20T12:57:46;93728.38;;;14.51;88.78
6389;BME280;3227;42.654;23.360;2022-11-20T13:00:18;93724.44;;;14.37;84.60
6389;BME280;3227;42.654;23.360;2022-11-20T13:03:16;93717.78;;;14.30;87.94
6389;BME280;3227;42.654;23.360;2022-11-20T13:05:59;93718.91;;;14.20;90.56
6389;BME280;3227;42.654;23.360;2022-11-20T13:08:34;93708.09;;;14.07;93.04
6389;BME280;3227;42.654;23.360;2022-11-20T13:11:14;93711.88;;;13.93;95.71
6389;BME280;3227;42.654;23.360;2022-11-20T13:13:48;93719.84;;;13.84;96.49
6389;BME280;3227;42.654;23.360;2022-11-20T13:16:25;93735.28;;;13.84;98.52
6389;BME280;3227;42.654;23.360;2022-11-20T13:18:54;93739.13;;;14.01;98.49
6389;BME280;3227;42.654;23.360;2022-11-20T13:21:34;93749.13;;;14.14;97.22
6389;BME280;3227;42.654;23.360;2022-11-20T13:24:04;93746.44;;;14.18;92.89
6389;BME280;3227;42.654;23.360;2022-11-20T13:26:33;93702.84;;;14.10;93.85
6389;BME280;3227;42.654;23.360;2022-11-20T13:29:05;93741.69;;;14.03;93.30
6389;BME280;3227;42.654;23.360;2022-11-20T13:31:36;93792.94;;;14.14;96.58